Terminal Aerodrome Forecast
Issued by NWS Grand Forks, ND

Home | Current Version | Previous Version | Graphics & Text | Print | Product List | Glossary On
Versions: 1 2 3 4 5 6 7 8 9 10 11 12 13
453
FTUS43 KFGF 241729
TAFFAR
TAF
KFAR 241729Z 2418/2518 36015G25KT P6SM SCT035
     FM250000 36008KT P6SM SKC
     FM250400 35004KT P6SM SKC
     FM251000 20004KT P6SM SKC
     FM251600 20010G18KT P6SM SKC=

USA.gov is the U.S. government's official web portal to all federal, state and local government web resources and services.